Time;durP1;ratioP1;P1;durP2;ratioP2;P2;SDS_P1;SDS_P2;PMS_P1;PMS_P2;Temp;Humidity;BMP_temperature;BMP_pressure;BME280_temperature;BME280_humidity;BME280_pressure;Samples;Min_cycle;Max_cycle;Signal;HPM_P1;HPM_P2
2022/12/27 00:01:30;;;;;;;6.03;3.28;;;6.70;99.90;;;;;;5058556;28;20056;-61
2022/12/27 00:03:57;;;;;;;4.68;2.13;;;6.70;99.90;;;;;;5050251;28;20055;-62
2022/12/27 00:06:25;;;;;;;3.75;1.70;;;6.70;99.90;;;;;;5050586;28;20497;-61
2022/12/27 00:08:52;;;;;;;2.90;1.55;;;6.70;99.90;;;;;;5069334;28;20566;-61
2022/12/27 00:11:21;;;;;;;3.38;1.88;;;6.70;99.90;;;;;;5056668;28;20099;-61
2022/12/27 00:13:48;;;;;;;3.45;2.08;;;6.80;99.90;;;;;;5069804;28;20465;-61
2022/12/27 00:16:19;;;;;;;3.75;2.15;;;6.80;99.90;;;;;;5045285;28;20033;-60
2022/12/27 00:18:47;;;;;;;5.97;2.15;;;6.90;99.90;;;;;;5044505;28;20045;-60
2022/12/27 00:21:15;;;;;;;6.47;2.47;;;6.80;99.90;;;;;;5067005;28;20056;-61
2022/12/27 00:23:47;;;;;;;4.45;2.22;;;6.80;99.90;;;;;;5068745;28;20119;-60
2022/12/27 00:26:17;;;;;;;6.40;3.67;;;6.90;99.90;;;;;;5053600;28;20098;-60
2022/12/27 00:28:45;;;;;;;4.45;2.45;;;6.90;99.90;;;;;;5060110;28;20099;-60
2022/12/27 00:31:12;;;;;;;5.13;2.70;;;6.80;99.90;;;;;;5061537;28;20041;-60
2022/12/27 00:33:40;;;;;;;;;;;6.80;99.90;;;;;;5070112;28;20046;-61
2022/12/27 00:36:10;;;;;;;6.78;3.30;;;6.80;99.90;;;;;;5057466;28;20356;-61
2022/12/27 00:38:36;;;;;;;4.20;2.67;;;6.80;99.90;;;;;;5069380;28;20095;-62
2022/12/27 00:41:04;;;;;;;6.28;3.15;;;6.80;99.90;;;;;;5068623;28;20082;-60
2022/12/27 00:43:31;;;;;;;4.78;3.17;;;6.80;99.90;;;;;;5069550;28;20090;-61
2022/12/27 00:45:58;;;;;;;6.65;3.20;;;6.80;99.90;;;;;;5058284;28;20091;-61
2022/12/27 00:48:25;;;;;;;6.63;4.10;;;6.70;99.90;;;;;;5058588;28;20047;-61
2022/12/27 00:51:02;;;;;;;5.20;3.40;;;6.70;99.90;;;;;;5070404;28;20479;-61
2022/12/27 00:53:29;;;;;;;4.15;2.78;;;6.70;99.90;;;;;;5059073;28;20514;-61
2022/12/27 00:55:56;;;;;;;5.88;2.45;;;6.70;99.90;;;;;;5050494;28;20045;-61
2022/12/27 00:58:24;;;;;;;7.65;3.10;;;6.70;99.90;;;;;;5058973;28;20064;-60
2022/12/27 01:00:51;;;;;;;6.05;3.42;;;6.80;99.90;;;;;;5070670;28;20049;-61
2022/12/27 01:03:18;;;;;;;;;;;6.70;99.90;;;;;;5073281;28;20047;-61
2022/12/27 01:05:45;;;;;;;10.68;3.28;;;6.70;99.90;;;;;;5050560;28;19921;-61
2022/12/27 01:08:13;;;;;;;5.10;3.20;;;6.70;99.90;;;;;;5061104;28;20094;-62
2022/12/27 01:10:40;;;;;;;4.35;2.20;;;6.60;99.90;;;;;;5070525;28;20044;-61
2022/12/27 01:13:07;;;;;;;;;;;6.60;99.90;;;;;;5049678;28;20053;-61
2022/12/27 01:15:33;;;;;;;2.72;1.33;;;6.60;99.90;;;;;;5050234;28;19971;-60
2022/12/27 01:18:00;;;;;;;1.60;1.00;;;6.60;99.90;;;;;;5061410;28;20044;-60
2022/12/27 01:20:27;;;;;;;1.58;0.80;;;6.70;99.90;;;;;;5065310;28;20064;-61
2022/12/27 01:22:54;;;;;;;1.48;0.60;;;6.70;99.90;;;;;;5049709;28;20037;-62
2022/12/27 01:25:20;;;;;;;1.20;0.80;;;6.60;99.90;;;;;;5066308;28;20073;-62
2022/12/27 01:27:47;;;;;;;1.00;0.70;;;6.70;99.90;;;;;;5054231;28;20040;-61
2022/12/27 01:30:14;;;;;;;1.17;0.70;;;6.70;99.90;;;;;;5069708;28;20048;-61
2022/12/27 01:32:41;;;;;;;1.23;0.70;;;6.70;99.90;;;;;;5070425;28;20048;-61
2022/12/27 01:35:08;;;;;;;1.40;1.00;;;6.70;99.90;;;;;;5070486;28;20064;-61
2022/12/27 01:37:34;;;;;;;1.73;1.40;;;6.70;99.90;;;;;;5060797;28;20068;-60
2022/12/27 01:40:01;;;;;;;0.85;0.70;;;6.70;99.90;;;;;;5067736;28;20041;-61
2022/12/27 01:45:34;;;;;;;1.35;0.82;;;6.70;99.90;;;;;;5058649;28;20065;-61
2022/12/27 01:48:23;;;;;;;1.83;0.70;;;6.70;99.90;;;;;;5070048;28;20115;-61
2022/12/27 01:51:01;;;;;;;1.48;0.45;;;6.70;99.90;;;;;;5064246;28;20076;-61
2022/12/27 01:53:32;;;;;;;0.93;0.30;;;6.60;99.90;;;;;;5051032;28;20045;-61
2022/12/27 01:56:19;;;;;;;0.17;0.17;;;6.60;99.90;;;;;;5066633;28;20045;-61
2022/12/27 01:59:01;;;;;;;0.55;0.10;;;6.70;99.90;;;;;;5056245;28;20203;-61
2022/12/27 02:01:42;;;;;;;0.40;0.10;;;6.60;99.90;;;;;;5069758;28;20102;-61
2022/12/27 02:04:15;;;;;;;0.00;0.00;;;6.60;99.90;;;;;;5070697;28;20044;-61
2022/12/27 02:06:43;;;;;;;0.00;0.00;;;6.60;99.90;;;;;;5053833;28;20117;-61
2022/12/27 02:09:25;;;;;;;0.00;0.00;;;6.50;99.90;;;;;;5072811;28;20444;-60
2022/12/27 02:11:55;;;;;;;0.00;0.00;;;6.50;99.90;;;;;;5067908;28;20041;-60
2022/12/27 02:14:40;;;;;;;0.28;0.00;;;6.50;99.90;;;;;;5053960;28;20316;-61
2022/12/27 02:17:28;;;;;;;2.00;0.20;;;6.50;99.90;;;;;;5070085;28;20045;-61
2022/12/27 02:20:11;;;;;;;0.17;0.00;;;6.50;99.90;;;;;;5066337;28;20094;-61
2022/12/27 02:25:49;;;;;;;0.13;0.10;;;6.40;99.90;;;;;;5073178;28;20048;-61
2022/12/27 02:28:32;;;;;;;0.10;0.10;;;6.40;99.90;;;;;;5080615;28;20097;-60
2022/12/27 02:31:14;;;;;;;0.40;0.10;;;6.30;99.90;;;;;;5061879;28;20037;-61
2022/12/27 02:33:46;;;;;;;0.47;0.10;;;6.30;99.90;;;;;;5053380;28;20532;-61
2022/12/27 02:36:21;;;;;;;0.57;0.00;;;6.20;99.90;;;;;;5055387;28;20065;-61
2022/12/27 02:38:52;;;;;;;0.03;0.00;;;6.20;99.90;;;;;;5065249;28;20045;-61
2022/12/27 02:55:18;;;;;;;0.43;0.43;;;6.20;99.90;;;;;;5052505;28;20054;-60
2022/12/27 02:58:08;;;;;;;0.10;0.00;;;6.20;99.90;;;;;;5063176;28;20466;-60
2022/12/27 03:03:39;;;;;;;1.05;0.13;;;6.20;99.90;;;;;;5074507;28;20056;-60
2022/12/27 03:06:40;;;;;;;0.05;0.00;;;6.20;99.90;;;;;;5073034;28;20040;-60
2022/12/27 03:18:47;;;;;;;0.10;0.08;;;6.20;99.90;;;;;;5092471;28;20055;-59
2022/12/27 03:27:16;;;;;;;;;;;6.20;99.90;;;;;;5072922;28;20068;-60
2022/12/27 03:33:11;;;;;;;1.02;0.20;;;6.00;99.90;;;;;;5071791;28;20110;-60
2022/12/27 03:35:40;;;;;;;1.13;0.60;;;5.80;99.90;;;;;;5072141;28;20036;-60
2022/12/27 03:38:11;;;;;;;3.22;0.50;;;5.50;99.90;;;;;;5072527;28;20067;-59
2022/12/27 03:43:39;;;;;;;1.40;0.55;;;5.20;99.90;;;;;;5091796;28;20048;-60
2022/12/27 03:46:32;;;;;;;1.35;0.40;;;5.10;99.90;;;;;;5074757;28;20037;-59
2022/12/27 03:49:27;;;;;;;2.63;0.40;;;5.10;99.90;;;;;;5072113;28;20041;-60
2022/12/27 03:52:21;;;;;;;1.05;0.30;;;5.10;99.90;;;;;;5072032;28;20044;-60
2022/12/27 03:54:50;;;;;;;2.92;0.20;;;5.10;99.90;;;;;;5071206;28;20047;-60
2022/12/27 03:57:20;;;;;;;0.60;0.50;;;5.10;99.90;;;;;;5071849;28;20044;-60
2022/12/27 03:59:46;;;;;;;0.65;0.40;;;5.10;99.90;;;;;;5072009;28;20045;-60
2022/12/27 04:02:13;;;;;;;1.55;0.20;;;5.10;99.90;;;;;;5070873;28;20065;-62
2022/12/27 04:04:41;;;;;;;2.20;0.30;;;5.10;99.90;;;;;;5070851;28;20566;-60
2022/12/27 04:07:07;;;;;;;;;;;5.10;99.90;;;;;;5071884;28;20040;-59
2022/12/27 04:34:42;;;;;;;2.40;0.32;;;4.90;99.90;;;;;;5089286;28;20101;-60
2022/12/27 04:37:15;;;;;;;0.43;0.30;;;4.90;99.90;;;;;;5091951;28;20105;-59
2022/12/27 04:54:55;;;;;;;0.40;0.30;;;4.90;99.90;;;;;;5081267;28;20049;-60
2022/12/27 04:56:31;;;;;;;2.67;0.38;;;5.00;99.90;;;;;;5070572;28;20393;-60
2022/12/27 05:04:34;;;;;;;4.13;0.50;;;5.00;99.90;;;;;;5073170;28;20044;-60
2022/12/27 05:13:58;;;;;;;0.73;0.30;;;4.90;99.90;;;;;;5071003;28;20094;-60
2022/12/27 05:15:19;;;;;;;0.15;0.15;;;4.90;99.90;;;;;;5071066;28;20098;-60
2022/12/27 05:17:45;;;;;;;0.47;0.20;;;4.90;99.90;;;;;;5070729;28;20629;-60
2022/12/27 05:20:13;;;;;;;0.98;0.10;;;4.90;99.90;;;;;;5070999;28;20043;-60
2022/12/27 05:25:35;;;;;;;0.85;0.20;;;5.00;99.90;;;;;;5070369;28;20044;-60
2022/12/27 05:28:08;;;;;;;0.10;0.10;;;4.90;99.90;;;;;;5069061;28;20141;-60
2022/12/27 05:30:36;;;;;;;0.28;0.20;;;4.90;99.90;;;;;;5078651;28;20072;-60
2022/12/27 05:33:03;;;;;;;0.28;0.10;;;4.90;99.90;;;;;;5068782;28;20048;-60
2022/12/27 05:35:30;;;;;;;1.00;0.30;;;4.80;99.90;;;;;;5070802;28;20102;-60
2022/12/27 05:37:57;;;;;;;0.52;0.30;;;4.80;99.90;;;;;;5071346;28;20072;-60
2022/12/27 05:40:24;;;;;;;1.85;0.22;;;4.70;99.90;;;;;;5074823;28;20040;-61
2022/12/27 05:42:51;;;;;;;3.25;0.60;;;4.70;99.90;;;;;;5081022;28;20086;-60
2022/12/27 05:45:19;;;;;;;0.30;0.30;;;4.70;99.90;;;;;;5092831;28;20107;-60
2022/12/27 05:47:46;;;;;;;0.30;0.30;;;4.70;99.90;;;;;;5087588;28;20037;-60
2022/12/27 05:50:13;;;;;;;0.85;0.40;;;4.70;99.90;;;;;;5077835;28;20419;-60
2022/12/27 05:52:40;;;;;;;3.03;0.50;;;4.70;99.90;;;;;;5088831;28;20090;-60
2022/12/27 05:55:07;;;;;;;0.35;0.20;;;4.70;99.90;;;;;;5073603;28;20149;-60
2022/12/27 05:57:34;;;;;;;;;;;4.50;99.90;;;;;;5074237;28;20111;-60
2022/12/27 06:00:02;;;;;;;0.98;0.30;;;4.50;99.90;;;;;;5073599;28;19985;-60
2022/12/27 06:02:38;;;;;;;0.75;0.50;;;4.50;99.90;;;;;;5073994;28;20049;-60
2022/12/27 06:05:05;;;;;;;0.75;0.40;;;4.60;99.90;;;;;;5073553;28;20051;-61
2022/12/27 06:07:34;;;;;;;0.50;0.40;;;4.60;99.90;;;;;;5056211;28;20485;-61
2022/12/27 06:10:02;;;;;;;1.55;0.55;;;4.60;99.90;;;;;;5082312;28;20086;-60
2022/12/27 06:12:29;;;;;;;0.43;0.32;;;4.60;99.90;;;;;;5073268;28;20068;-60
2022/12/27 06:14:55;;;;;;;1.60;0.47;;;4.60;99.90;;;;;;5073957;28;20048;-60
2022/12/27 06:17:22;;;;;;;2.17;0.55;;;4.60;99.90;;;;;;5073847;28;20481;-61
2022/12/27 06:19:49;;;;;;;3.03;0.70;;;4.50;99.90;;;;;;5082100;28;20078;-60
2022/12/27 06:22:23;;;;;;;1.10;0.50;;;4.50;99.90;;;;;;5074918;28;20128;-60
2022/12/27 06:24:49;;;;;;;0.30;0.30;;;4.60;99.90;;;;;;5093602;28;20040;-60
2022/12/27 06:27:16;;;;;;;1.75;0.68;;;4.50;99.90;;;;;;5090847;28;20075;-60
2022/12/27 06:29:43;;;;;;;0.50;0.50;;;4.50;99.90;;;;;;5079802;28;20373;-61
2022/12/27 06:32:10;;;;;;;0.80;0.50;;;4.40;99.90;;;;;;5089306;28;20044;-60
2022/12/27 06:34:37;;;;;;;1.73;1.00;;;4.30;99.90;;;;;;5093391;28;20173;-60
2022/12/27 06:37:03;;;;;;;5.57;0.98;;;4.30;99.90;;;;;;5077214;28;20489;-60
2022/12/27 06:39:30;;;;;;;2.13;0.95;;;4.30;99.90;;;;;;5073482;28;20409;-60
2022/12/27 06:41:56;;;;;;;1.92;1.02;;;4.30;99.90;;;;;;5072751;28;20029;-60
2022/12/27 06:44:24;;;;;;;1.88;0.80;;;4.30;99.90;;;;;;5072923;28;20098;-60
2022/12/27 06:46:51;;;;;;;3.45;1.02;;;4.40;99.90;;;;;;5073189;28;20040;-60
2022/12/27 06:49:17;;;;;;;1.52;1.13;;;4.40;99.90;;;;;;5072424;28;20491;-60
2022/12/27 06:51:44;;;;;;;3.90;1.20;;;4.40;99.90;;;;;;5073124;28;20079;-60
2022/12/27 06:54:11;;;;;;;3.83;1.17;;;4.40;99.90;;;;;;5072965;28;20098;-60
2022/12/27 06:56:37;;;;;;;4.80;0.98;;;4.50;99.90;;;;;;5073295;28;20127;-60
2022/12/27 06:59:04;;;;;;;4.00;1.50;;;4.50;99.90;;;;;;5073044;28;20072;-60
2022/12/27 07:01:31;;;;;;;5.53;1.63;;;4.50;99.90;;;;;;5073060;28;20102;-60
2022/12/27 07:03:59;;;;;;;3.90;1.70;;;4.50;99.90;;;;;;5072665;28;20135;-60
2022/12/27 07:06:28;;;;;;;8.55;2.97;;;4.60;99.90;;;;;;5073174;28;20413;-60
2022/12/27 07:08:56;;;;;;;3.28;2.08;;;4.60;99.90;;;;;;5079932;28;20565;-60
2022/12/27 07:11:23;;;;;;;3.35;1.45;;;4.60;99.90;;;;;;5081868;28;20044;-60
2022/12/27 07:13:52;;;;;;;2.75;1.50;;;4.60;99.90;;;;;;5092357;28;20048;-60
2022/12/27 07:16:22;;;;;;;3.30;1.77;;;4.60;99.90;;;;;;5087249;28;20055;-60
2022/12/27 07:18:49;;;;;;;4.78;2.25;;;4.60;99.90;;;;;;5072881;28;20052;-60
2022/12/27 07:21:19;;;;;;;19.13;7.32;;;4.60;99.90;;;;;;5089267;28;20101;-60
2022/12/27 07:23:46;;;;;;;30.67;10.63;;;4.60;99.90;;;;;;5092789;28;20044;-61
2022/12/27 07:26:19;;;;;;;29.70;11.13;;;4.50;99.90;;;;;;5090020;28;20117;-60
2022/12/27 07:28:46;;;;;;;32.25;10.95;;;4.60;99.90;;;;;;5081069;28;20044;-60
2022/12/27 07:31:17;;;;;;;34.63;11.95;;;4.60;99.90;;;;;;5072708;28;20106;-60
2022/12/27 07:33:45;;;;;;;24.35;8.35;;;4.60;99.90;;;;;;5072512;28;20044;-61
2022/12/27 07:36:15;;;;;;;14.65;6.32;;;4.60;99.90;;;;;;5072391;28;20044;-60
2022/12/27 07:38:41;;;;;;;7.18;3.33;;;4.60;99.90;;;;;;5072491;28;20384;-61
2022/12/27 07:41:10;;;;;;;4.45;2.35;;;4.50;99.90;;;;;;5072153;28;20074;-60
2022/12/27 07:43:37;;;;;;;5.18;3.10;;;4.60;99.90;;;;;;5054037;28;20040;-60
2022/12/27 07:46:06;;;;;;;8.90;3.63;;;4.50;99.90;;;;;;5071981;28;20056;-60
2022/12/27 07:48:32;;;;;;;7.75;3.33;;;4.50;99.90;;;;;;5071905;28;20382;-60
2022/12/27 07:50:59;;;;;;;6.07;2.50;;;4.40;99.90;;;;;;5072368;28;20068;-60
2022/12/27 07:53:27;;;;;;;2.83;1.80;;;4.40;99.90;;;;;;5071152;28;20044;-60
2022/12/27 07:55:54;;;;;;;3.53;2.03;;;4.50;99.90;;;;;;5072176;28;20060;-61
2022/12/27 07:58:21;;;;;;;5.65;1.88;;;4.60;99.90;;;;;;5071710;28;20477;-61
2022/12/27 08:00:49;;;;;;;4.03;2.05;;;4.60;99.90;;;;;;5076080;28;20040;-60
2022/12/27 08:03:17;;;;;;;8.18;3.25;;;4.70;99.90;;;;;;5074769;28;20095;-61
2022/12/27 08:05:46;;;;;;;10.77;3.50;;;4.70;99.90;;;;;;5083678;28;20064;-61
2022/12/27 08:08:15;;;;;;;7.38;2.72;;;4.70;99.90;;;;;;5082448;28;20064;-61
2022/12/27 08:10:42;;;;;;;5.47;3.15;;;4.80;99.90;;;;;;5074851;28;20036;-61
2022/12/27 08:13:09;;;;;;;6.25;2.97;;;4.90;99.90;;;;;;5090662;28;20071;-61
2022/12/27 08:15:37;;;;;;;7.32;2.58;;;5.00;99.90;;;;;;5091873;28;20101;-61
2022/12/27 08:18:04;;;;;;;8.18;3.20;;;5.10;99.90;;;;;;5070989;28;20094;-60
2022/12/27 08:20:31;;;;;;;5.82;2.42;;;5.10;99.90;;;;;;5075595;28;20115;-61
2022/12/27 08:22:58;;;;;;;14.60;4.78;;;5.20;99.90;;;;;;5091313;28;20090;-61
2022/12/27 08:25:24;;;;;;;14.93;5.07;;;5.10;99.90;;;;;;5086957;28;20452;-60
2022/12/27 08:27:51;;;;;;;12.57;4.18;;;5.10;99.90;;;;;;5071276;28;20068;-61
2022/12/27 08:30:18;;;;;;;3.28;1.63;;;5.10;99.90;;;;;;5081242;28;20068;-60
2022/12/27 08:32:45;;;;;;;3.40;1.20;;;5.10;99.90;;;;;;5088676;28;20044;-61
2022/12/27 08:35:11;;;;;;;3.97;1.90;;;5.00;99.90;;;;;;5088645;28;20056;-61
2022/12/27 08:38:01;;;;;;;4.80;2.47;;;5.00;99.90;;;;;;5071393;28;20510;-60
2022/12/27 08:40:28;;;;;;;5.28;2.78;;;5.10;99.90;;;;;;5071301;28;20094;-60
2022/12/27 08:42:55;;;;;;;4.47;2.55;;;5.10;99.90;;;;;;5071155;28;20068;-61
2022/12/27 08:45:21;;;;;;;4.25;2.10;;;5.20;99.90;;;;;;5071521;28;20082;-62
2022/12/27 08:47:48;;;;;;;5.45;1.73;;;5.30;99.90;;;;;;5101535;22;20041;-59
2022/12/27 08:50:15;;;;;;;3.05;2.10;;;5.40;99.90;;;;;;5079127;28;20060;-59
2022/12/27 08:52:42;;;;;;;2.90;1.98;;;5.40;99.90;;;;;;5081684;28;20048;-59
2022/12/27 08:55:08;;;;;;;3.88;1.77;;;5.50;99.90;;;;;;5080341;28;20037;-61
2022/12/27 08:57:36;;;;;;;7.53;3.40;;;5.60;99.90;;;;;;5086693;28;20038;-60
2022/12/27 09:00:05;;;;;;;6.68;3.80;;;5.60;99.90;;;;;;5101731;28;20097;-59
2022/12/27 09:02:32;;;;;;;7.68;4.30;;;5.60;99.90;;;;;;5100324;28;20059;-61
2022/12/27 09:04:59;;;;;;;5.28;3.08;;;5.70;99.90;;;;;;5103782;28;20085;-61
2022/12/27 09:07:25;;;;;;;10.40;4.63;;;5.90;99.90;;;;;;5109708;28;20067;-61
2022/12/27 09:09:52;;;;;;;8.02;4.03;;;6.00;99.90;;;;;;5110252;28;20044;-61
2022/12/27 09:12:19;;;;;;;10.25;4.55;;;6.00;99.90;;;;;;5100948;28;20102;-60
2022/12/27 09:14:45;;;;;;;6.15;3.63;;;6.10;99.90;;;;;;5100527;28;20089;-61
2022/12/27 09:17:12;;;;;;;5.82;4.10;;;6.10;99.90;;;;;;5115463;28;20047;-61
2022/12/27 09:19:39;;;;;;;6.18;3.53;;;6.20;99.90;;;;;;5115234;28;20100;-59
2022/12/27 09:22:06;;;;;;;4.55;2.45;;;6.20;99.90;;;;;;5113602;28;20071;-61
2022/12/27 09:24:32;;;;;;;8.05;3.03;;;6.20;99.90;;;;;;5090813;28;20101;-61
2022/12/27 09:26:59;;;;;;;3.80;2.30;;;6.00;99.90;;;;;;5115376;28;20120;-61
2022/12/27 09:29:26;;;;;;;5.10;3.30;;;6.00;99.90;;;;;;5115166;28;20063;-60
2022/12/27 09:31:52;;;;;;;6.95;3.15;;;6.00;99.90;;;;;;5098348;28;20035;-61
2022/12/27 09:34:19;;;;;;;6.25;3.05;;;6.00;99.90;;;;;;5096779;28;20043;-60
2022/12/27 09:36:46;;;;;;;8.43;3.28;;;6.10;99.90;;;;;;5102822;28;20075;-60
2022/12/27 09:39:14;;;;;;;6.63;3.47;;;6.00;99.90;;;;;;5097128;28;20461;-61
2022/12/27 09:41:53;;;;;;;6.18;2.80;;;6.00;99.90;;;;;;5092943;28;20067;-61
2022/12/27 09:44:46;;;;;;;5.60;2.80;;;6.00;99.90;;;;;;5095299;28;20044;-60
2022/12/27 09:47:14;;;;;;;6.15;2.08;;;6.00;99.90;;;;;;5097927;28;20028;-60
2022/12/27 09:49:43;;;;;;;4.55;2.88;;;6.00;99.90;;;;;;5094525;28;20035;-61
2022/12/27 09:52:16;;;;;;;6.80;2.80;;;6.00;99.90;;;;;;5091514;28;20077;-60
2022/12/27 09:54:43;;;;;;;7.32;2.72;;;6.20;99.90;;;;;;5094762;28;20044;-61
2022/12/27 09:57:26;;;;;;;4.13;2.60;;;6.20;99.90;;;;;;5093396;28;20051;-61
2022/12/27 09:59:58;;;;;;;4.25;2.50;;;6.10;99.90;;;;;;5087269;28;20056;-61
2022/12/27 10:02:27;;;;;;;7.40;3.20;;;6.20;99.90;;;;;;5109196;28;20036;-61
2022/12/27 10:04:57;;;;;;;9.50;2.92;;;6.20;99.90;;;;;;5114666;28;20456;-61
2022/12/27 10:08:13;;;;;;;5.40;2.90;;;6.30;99.90;;;;;;5109414;28;20122;-61
2022/12/27 10:10:54;;;;;;;7.53;3.50;;;6.40;99.90;;;;;;5113502;28;20511;-61
2022/12/27 10:13:48;;;;;;;6.47;3.08;;;6.60;99.90;;;;;;5113559;28;20059;-61
2022/12/27 10:16:41;;;;;;;5.57;3.00;;;6.70;99.90;;;;;;5114371;28;20048;-61
2022/12/27 10:19:28;;;;;;;8.38;3.25;;;6.80;99.90;;;;;;5079173;28;20424;-61
2022/12/27 10:22:20;;;;;;;7.97;2.70;;;6.90;99.90;;;;;;5103118;28;20481;-60
2022/12/27 10:24:53;;;;;;;8.77;4.40;;;6.90;99.90;;;;;;5095997;28;20071;-60
2022/12/27 10:27:24;;;;;;;7.75;3.38;;;6.90;99.90;;;;;;5094229;28;20093;-61
2022/12/27 10:29:53;;;;;;;5.32;3.20;;;6.80;99.90;;;;;;5114266;28;20045;-60
2022/12/27 10:32:21;;;;;;;7.20;3.10;;;6.80;99.90;;;;;;5109879;28;20051;-60
2022/12/27 10:34:51;;;;;;;;;;;6.90;99.90;;;;;;5102507;28;20136;-61
2022/12/27 10:37:17;;;;;;;6.38;2.53;;;7.00;99.90;;;;;;5096025;28;19995;-60
2022/12/27 10:39:44;;;;;;;13.85;8.95;;;7.10;99.90;;;;;;5093333;28;20043;-60
2022/12/27 10:42:29;;;;;;;17.00;8.38;;;7.10;99.90;;;;;;5088226;28;20097;-60
2022/12/27 10:45:35;;;;;;;17.52;8.85;;;7.10;99.90;;;;;;5094954;28;20387;-60
2022/12/27 10:48:18;;;;;;;8.45;3.50;;;7.10;99.90;;;;;;5100866;28;20594;-60
2022/12/27 10:51:00;;;;;;;20.40;12.10;;;7.10;99.90;;;;;;5080404;28;20442;-60
2022/12/27 10:53:56;;;;;;;8.65;3.85;;;7.00;99.90;;;;;;5072729;28;20044;-60
2022/12/27 10:56:43;;;;;;;3.38;2.45;;;7.00;99.90;;;;;;5093111;28;20074;-60
2022/12/27 10:59:28;;;;;;;5.60;2.90;;;7.00;99.90;;;;;;5087917;28;20044;-60
2022/12/27 11:02:00;;;;;;;4.88;2.60;;;7.10;99.90;;;;;;5086868;28;20840;-60
2022/12/27 11:04:29;;;;;;;4.45;2.70;;;7.00;99.90;;;;;;5090558;28;20040;-60
2022/12/27 11:07:00;;;;;;;6.45;2.50;;;7.00;99.90;;;;;;5092854;28;20504;-60
2022/12/27 11:09:35;;;;;;;5.55;2.47;;;6.90;99.90;;;;;;5092994;28;20044;-60
2022/12/27 11:12:23;;;;;;;4.75;2.70;;;6.90;99.90;;;;;;5087199;28;20097;-60
2022/12/27 11:15:01;;;;;;;3.70;2.70;;;6.90;99.90;;;;;;5092489;28;20036;-61
2022/12/27 11:17:37;;;;;;;4.22;2.67;;;7.00;99.90;;;;;;5090791;28;20051;-61
2022/12/27 11:20:31;;;;;;;5.72;3.28;;;7.10;99.90;;;;;;5089790;28;20602;-60
2022/12/27 11:23:07;;;;;;;5.80;2.78;;;7.10;99.90;;;;;;5081931;28;20110;-61
2022/12/27 11:25:35;;;;;;;5.20;2.45;;;7.10;99.90;;;;;;5092548;28;20043;-61
2022/12/27 11:28:29;;;;;;;5.75;2.20;;;7.20;99.90;;;;;;5090483;28;20048;-61
2022/12/27 11:31:04;;;;;;;3.58;2.20;;;7.30;99.90;;;;;;5092358;28;20081;-61
2022/12/27 11:33:50;;;;;;;4.35;2.30;;;7.40;99.90;;;;;;5090518;28;20044;-60
2022/12/27 11:36:43;;;;;;;6.32;2.38;;;7.40;99.90;;;;;;5082171;28;20385;-61
2022/12/27 11:39:35;;;;;;;4.68;2.13;;;7.40;99.90;;;;;;5088015;28;20068;-61
2022/12/27 11:42:03;;;;;;;4.43;2.55;;;7.40;99.90;;;;;;5067941;28;20134;-61
2022/12/27 11:44:42;;;;;;;4.68;2.30;;;7.40;99.90;;;;;;5087928;28;20040;-60
2022/12/27 11:47:37;;;;;;;5.50;2.58;;;7.40;99.90;;;;;;5087557;28;20060;-60
2022/12/27 11:50:20;;;;;;;4.03;2.22;;;7.40;99.90;;;;;;5095373;28;20039;-60
2022/12/27 11:53:11;;;;;;;4.35;2.55;;;7.50;99.90;;;;;;5089288;28;20052;-60
2022/12/27 11:56:02;;;;;;;5.43;2.72;;;7.60;99.90;;;;;;5073366;28;20448;-61
2022/12/27 11:59:10;;;;;;;3.90;2.20;;;7.60;99.90;;;;;;5091020;28;20052;-61
2022/12/27 12:01:57;;;;;;;3.88;2.25;;;7.60;99.90;;;;;;5027680;28;20041;-61
2022/12/27 12:04:45;;;;;;;4.70;2.60;;;7.60;99.90;;;;;;5029085;28;20077;-60
2022/12/27 12:07:50;;;;;;;4.55;2.88;;;7.60;99.90;;;;;;5028045;28;20041;-61
2022/12/27 12:10:19;;;;;;;6.32;2.70;;;7.60;99.90;;;;;;5012694;28;20077;-60
2022/12/27 12:13:10;;;;;;;5.75;2.85;;;7.60;99.90;;;;;;5032253;28;20052;-61
2022/12/27 12:16:00;;;;;;;5.18;2.15;;;7.60;99.90;;;;;;5086820;28;20075;-61
2022/12/27 12:18:59;;;;;;;5.38;1.85;;;7.60;99.90;;;;;;5069912;28;20074;-60
2022/12/27 12:21:30;;;;;;;;;;;7.60;99.90;;;;;;5091433;28;20125;-60
2022/12/27 12:24:20;;;;;;;5.93;2.20;;;7.60;99.90;;;;;;5081708;28;19924;-61
2022/12/27 12:26:59;;;;;;;4.63;1.83;;;7.60;99.90;;;;;;5083901;28;20040;-60
2022/12/27 12:29:48;;;;;;;3.70;2.03;;;7.70;99.90;;;;;;5091426;28;20044;-60
2022/12/27 12:32:27;;;;;;;;;;;7.70;99.90;;;;;;5086109;28;20070;-61
2022/12/27 12:35:21;;;;;;;2.08;1.30;;;7.70;99.90;;;;;;5090712;28;19924;-61
2022/12/27 12:38:02;;;;;;;3.13;1.90;;;7.70;99.90;;;;;;5089453;28;20055;-60
2022/12/27 12:41:02;;;;;;;5.22;1.80;;;7.70;99.90;;;;;;5088330;28;20040;-61
2022/12/27 12:43:46;;;;;;;3.90;1.65;;;7.60;99.90;;;;;;5085438;28;20180;-61
2022/12/27 12:46:32;;;;;;;4.38;2.10;;;7.60;99.90;;;;;;5087110;28;20043;-61
2022/12/27 12:49:37;;;;;;;3.42;1.80;;;7.80;99.90;;;;;;5086160;28;20048;-61
2022/12/27 12:52:28;;;;;;;7.20;2.10;;;7.80;99.90;;;;;;5090648;28;20039;-61
2022/12/27 12:55:24;;;;;;;2.22;1.50;;;7.80;99.90;;;;;;5082508;28;20040;-61
2022/12/27 12:58:16;;;;;;;2.88;1.67;;;7.90;99.90;;;;;;5074617;28;20044;-60
2022/12/27 13:01:01;;;;;;;2.85;1.60;;;8.00;99.90;;;;;;5087555;28;20074;-60
2022/12/27 13:03:33;;;;;;;3.13;1.80;;;8.10;99.90;;;;;;5090226;28;20036;-61
2022/12/27 13:06:46;;;;;;;3.45;1.70;;;8.10;99.90;;;;;;5090502;28;20484;-60
2022/12/27 13:09:38;;;;;;;2.35;1.55;;;8.00;99.90;;;;;;5072219;28;20143;-60
2022/12/27 13:12:17;;;;;;;2.28;1.38;;;7.90;99.90;;;;;;5090355;28;20055;-60
2022/12/27 13:14:56;;;;;;;3.03;1.80;;;7.80;99.90;;;;;;5090249;28;20036;-61
2022/12/27 13:17:38;;;;;;;2.78;1.75;;;7.70;99.90;;;;;;5090000;28;20123;-61
2022/12/27 13:20:17;;;;;;;4.55;1.67;;;7.60;99.90;;;;;;5090244;28;20085;-61
2022/12/27 13:22:56;;;;;;;4.18;1.75;;;7.50;99.90;;;;;;5089863;28;20040;-60
2022/12/27 13:25:55;;;;;;;2.22;1.52;;;7.60;99.90;;;;;;5088820;28;20040;-61
2022/12/27 13:29:14;;;;;;;7.45;1.83;;;7.60;99.90;;;;;;5072996;28;20496;-61
2022/12/27 13:32:14;;;;;;;3.83;1.70;;;7.70;99.90;;;;;;5072563;28;20056;-61
2022/12/27 13:35:06;;;;;;;3.90;1.63;;;7.60;99.90;;;;;;5073076;28;20369;-61
2022/12/27 13:37:38;;;;;;;3.05;1.60;;;7.50;99.90;;;;;;5077308;28;20060;-61
2022/12/27 13:40:44;;;;;;;2.33;1.65;;;7.50;99.90;;;;;;5087686;28;20044;-61
2022/12/27 13:43:38;;;;;;;6.07;1.50;;;7.40;99.90;;;;;;5071851;28;20512;-61
2022/12/27 13:46:26;;;;;;;6.45;1.70;;;7.30;99.90;;;;;;5085048;28;20040;-61
2022/12/27 13:49:11;;;;;;;6.43;1.85;;;7.20;99.90;;;;;;5080716;28;20326;-61
2022/12/27 13:51:52;;;;;;;4.93;2.00;;;7.20;99.90;;;;;;5085969;28;20478;-61
2022/12/27 13:54:53;;;;;;;5.82;2.67;;;7.20;99.90;;;;;;5081610;28;20456;-60
2022/12/27 13:58:08;;;;;;;7.20;3.72;;;7.10;99.90;;;;;;5073552;28;20056;-60
2022/12/27 14:00:45;;;;;;;9.40;4.30;;;7.10;99.90;;;;;;5076393;28;20102;-61
2022/12/27 14:03:36;;;;;;;12.20;4.33;;;7.10;99.90;;;;;;5074606;28;20041;-61
2022/12/27 14:06:40;;;;;;;10.20;4.65;;;7.00;99.90;;;;;;5080687;28;20089;-60
2022/12/27 14:09:40;;;;;;;6.00;3.17;;;7.00;99.90;;;;;;5080539;28;20056;-61
2022/12/27 14:12:44;;;;;;;9.43;3.03;;;7.00;99.90;;;;;;5079525;28;20072;-61
2022/12/27 14:15:19;;;;;;;4.60;2.70;;;6.90;99.90;;;;;;5075637;28;20048;-61
2022/12/27 14:17:57;;;;;;;4.97;2.50;;;6.80;99.90;;;;;;5076412;28;20137;-60
2022/12/27 14:20:48;;;;;;;5.75;2.80;;;6.70;99.90;;;;;;5076325;28;20052;-60
2022/12/27 14:23:39;;;;;;;4.75;2.53;;;6.70;99.90;;;;;;5075153;28;20382;-60
2022/12/27 14:26:37;;;;;;;10.05;3.00;;;6.70;99.90;;;;;;5075660;28;20044;-60
2022/12/27 14:29:29;;;;;;;7.60;3.10;;;6.70;99.90;;;;;;5074652;28;20040;-60
2022/12/27 14:32:03;;;;;;;10.35;3.25;;;6.60;99.90;;;;;;5074702;28;20062;-61
2022/12/27 14:35:07;;;;;;;10.55;3.92;;;6.50;99.90;;;;;;5076243;28;20493;-61
2022/12/27 14:38:05;;;;;;;14.45;6.32;;;6.50;99.90;;;;;;5076490;28;20041;-60
2022/12/27 14:40:50;;;;;;;8.20;4.07;;;6.50;99.90;;;;;;5076538;28;20044;-60
2022/12/27 14:43:44;;;;;;;12.77;7.13;;;6.40;99.90;;;;;;5080164;28;20044;-61
2022/12/27 14:46:41;;;;;;;32.30;15.73;;;6.30;99.90;;;;;;5070192;28;20078;-60
2022/12/27 14:53:34;;;;;;;31.58;14.43;;;6.10;99.90;;;;;;5078252;28;20039;-60
2022/12/27 14:56:26;;;;;;;40.58;16.90;;;6.10;99.90;;;;;;5075576;28;20063;-60
2022/12/27 14:59:12;;;;;;;45.45;21.98;;;6.00;99.90;;;;;;5088721;28;20411;-60
2022/12/27 15:02:00;;;;;;;48.80;24.45;;;6.00;99.90;;;;;;5090904;28;20041;-60
2022/12/27 15:05:09;;;;;;;37.33;17.92;;;5.90;99.90;;;;;;5092531;28;20052;-61
2022/12/27 15:07:47;;;;;;;22.60;11.98;;;5.70;99.90;;;;;;5092160;28;20093;-61
2022/12/27 15:10:36;;;;;;;25.42;11.30;;;5.60;99.90;;;;;;5090083;28;20032;-60
2022/12/27 15:13:17;;;;;;;16.02;8.00;;;5.60;99.90;;;;;;5091773;28;20097;-61
2022/12/27 15:15:56;;;;;;;20.17;9.45;;;5.50;99.90;;;;;;5092131;28;20048;-61
2022/12/27 15:18:33;;;;;;;15.18;7.50;;;5.40;99.90;;;;;;5089674;28;20043;-60
2022/12/27 15:21:43;;;;;;;23.50;10.88;;;5.30;99.90;;;;;;5084107;28;20097;-59
2022/12/27 15:24:28;;;;;;;7.70;4.63;;;5.20;99.90;;;;;;5008780;28;20491;-60
2022/12/27 15:27:12;;;;;;;20.55;7.18;;;5.10;99.90;;;;;;5006369;28;20115;-61